Time;durP1;ratioP1;P1;durP2;ratioP2;P2;SDS_P1;SDS_P2;PMS_P1;PMS_P2;Temp;Humidity;BMP_temperature;BMP_pressure;BME280_temperature;BME280_humidity;BME280_pressure;Samples;Min_cycle;Max_cycle;Signal;HPM_P1;HPM_P2
2022/01/22 00:00:37;;;;;;;1.20;0.75;;;;;12.10;103133.00;;;;5013975;28;20197;-84
2022/01/22 00:03:04;;;;;;;4.43;0.90;;;;;12.10;103138.00;;;;5012261;28;20212;-83
2022/01/22 00:05:32;;;;;;;3.70;0.40;;;;;12.10;103135.00;;;;5013527;28;20230;-84
2022/01/22 00:08:00;;;;;;;2.67;0.77;;;;;12.10;103136.00;;;;5022106;28;20227;-84
2022/01/22 00:10:27;;;;;;;2.25;0.60;;;;;12.10;103137.00;;;;5017283;28;20193;-83
2022/01/22 00:15:41;;;;;;;1.27;0.60;;;;;12.10;103124.00;;;;4995725;28;20263;-84
2022/01/22 00:18:09;;;;;;;3.40;0.70;;;;;12.10;103121.00;;;;5010766;28;20217;-84
2022/01/22 00:20:37;;;;;;;1.05;0.55;;;;;12.10;103117.00;;;;5016844;28;20929;-84
2022/01/22 00:23:05;;;;;;;2.10;0.50;;;;;12.10;103113.00;;;;5026960;28;20193;-84
2022/01/22 00:25:32;;;;;;;3.33;0.60;;;;;12.10;103110.00;;;;5015307;28;20587;-84
2022/01/22 00:28:00;;;;;;;2.55;0.82;;;;;12.10;103108.00;;;;5018609;28;20219;-83
2022/01/22 00:30:29;;;;;;;2.63;1.00;;;;;12.10;103099.00;;;;5010859;28;21099;-84
2022/01/22 00:32:57;;;;;;;3.05;0.85;;;;;12.00;103098.00;;;;5027526;28;20208;-84
2022/01/22 00:35:25;;;;;;;4.13;1.10;;;;;12.00;103107.00;;;;5010534;28;20220;-84
2022/01/22 00:37:54;;;;;;;2.88;0.80;;;;;12.00;103109.00;;;;5013864;28;20189;-84
2022/01/22 00:40:22;;;;;;;2.28;0.57;;;;;12.00;103107.00;;;;5014085;28;20197;-84
2022/01/22 00:42:51;;;;;;;1.73;0.70;;;;;12.00;103111.00;;;;5013967;28;20232;-84
2022/01/22 00:45:19;;;;;;;1.63;0.88;;;;;12.00;103110.00;;;;5010583;28;20201;-84
2022/01/22 00:47:47;;;;;;;2.00;0.77;;;;;12.00;103106.00;;;;5010662;28;20224;-85
2022/01/22 00:50:16;;;;;;;4.07;1.08;;;;;12.00;103101.00;;;;5025933;28;20207;-84
2022/01/22 00:52:46;;;;;;;3.00;0.88;;;;;12.00;103110.00;;;;5025558;28;20200;-83
2022/01/22 00:55:15;;;;;;;3.30;1.42;;;;;12.00;103110.00;;;;5020904;28;20204;-84
2022/01/22 00:57:43;;;;;;;2.40;0.95;;;;;12.00;103109.00;;;;5027518;28;20208;-84
2022/01/22 01:00:12;;;;;;;5.30;1.17;;;;;12.00;103111.00;;;;5024398;28;20521;-84
2022/01/22 01:02:40;;;;;;;3.67;0.93;;;;;12.00;103113.00;;;;5026669;28;20208;-84
2022/01/22 01:05:10;;;;;;;2.70;1.23;;;;;12.00;103118.00;;;;5011077;28;20209;-84
2022/01/22 01:07:38;;;;;;;5.43;1.13;;;;;12.00;103124.00;;;;5009946;28;20225;-84
2022/01/22 01:10:07;;;;;;;4.80;1.27;;;;;12.00;103122.00;;;;5010314;28;20204;-84
2022/01/22 01:12:38;;;;;;;4.32;1.10;;;;;12.00;103121.00;;;;5010726;28;20200;-84
2022/01/22 01:15:15;;;;;;;6.32;1.10;;;;;12.00;103122.00;;;;5021891;28;20208;-84
2022/01/22 01:23:22;;;;;;;3.42;1.08;;;;;12.00;103114.00;;;;5009668;28;20227;-83
2022/01/22 01:34:31;;;;;;;3.45;1.10;;;;;12.10;103133.00;;;;5013176;28;20240;-84
2022/01/22 01:37:00;;;;;;;2.13;1.05;;;;;12.10;103124.00;;;;5020818;28;20208;-84
2022/01/22 01:39:31;;;;;;;3.17;1.30;;;;;12.20;103141.00;;;;5012873;28;20672;-84
2022/01/22 01:42:03;;;;;;;3.08;1.15;;;;;12.20;103132.00;;;;5009748;28;20676;-85
2022/01/22 01:44:32;;;;;;;1.60;1.20;;;;;12.20;103136.00;;;;5009870;28;20201;-85
2022/01/22 01:47:01;;;;;;;3.60;1.33;;;;;12.20;103133.00;;;;5008872;28;20208;-85
2022/01/22 01:49:30;;;;;;;3.05;1.40;;;;;12.20;103130.00;;;;5012783;28;20220;-85
2022/01/22 01:52:00;;;;;;;2.35;1.55;;;;;12.20;103138.00;;;;5017008;28;20196;-84
2022/01/22 01:54:35;;;;;;;2.92;1.45;;;;;12.20;103129.00;;;;5009781;28;20702;-84
2022/01/22 01:59:52;;;;;;;4.40;1.33;;;;;12.20;103136.00;;;;5021965;28;20214;-84
2022/01/22 02:02:22;;;;;;;2.58;1.85;;;;;12.20;103130.00;;;;5018333;28;20237;-84
2022/01/22 02:04:49;;;;;;;7.15;1.90;;;;;12.30;103134.00;;;;5021261;28;20219;-84
2022/01/22 02:07:17;;;;;;;5.85;1.70;;;;;12.30;103129.00;;;;5013739;28;20204;-85
2022/01/22 02:09:44;;;;;;;2.58;1.55;;;;;12.30;103125.00;;;;5008445;28;20225;-85
2022/01/22 02:12:17;;;;;;;4.93;1.80;;;;;12.30;103138.00;;;;5021462;28;20204;-85
2022/01/22 02:25:46;;;;;;;6.20;1.20;;;;;12.30;103142.00;;;;5025655;28;20215;-85
2022/01/22 02:28:14;;;;;;;2.53;1.50;;;;;12.30;103147.00;;;;5024731;28;20251;-85
2022/01/22 02:30:45;;;;;;;3.35;1.70;;;;;12.40;103143.00;;;;5026165;28;20196;-85
2022/01/22 02:33:29;;;;;;;2.60;1.15;;;;;12.40;103144.00;;;;5017092;28;20204;-86
2022/01/22 02:36:01;;;;;;;3.80;1.73;;;;;12.40;103142.00;;;;5016524;28;20472;-85
2022/01/22 02:38:37;;;;;;;2.13;1.42;;;;;12.40;103144.00;;;;5020609;28;20208;-85
2022/01/22 02:41:05;;;;;;;5.43;1.27;;;;;12.40;103136.00;;;;5014015;28;20560;-85
2022/01/22 02:43:33;;;;;;;1.67;1.23;;;;;12.40;103138.00;;;;5008728;28;20699;-85
2022/01/22 02:46:01;;;;;;;2.53;1.67;;;;;12.40;103143.00;;;;5025586;28;20247;-85
2022/01/22 02:48:28;;;;;;;1.73;1.00;;;;;12.40;103135.00;;;;5027617;28;20224;-85
2022/01/22 02:50:56;;;;;;;3.33;1.42;;;;;12.40;103130.00;;;;5016251;28;20208;-85
2022/01/22 02:53:23;;;;;;;1.52;1.17;;;;;12.40;103136.00;;;;5009000;28;20200;-85
2022/01/22 02:55:52;;;;;;;3.55;1.48;;;;;12.40;103136.00;;;;5018218;28;20213;-85
2022/01/22 02:58:19;;;;;;;1.45;1.10;;;;;12.40;103122.00;;;;5027917;28;20562;-85
2022/01/22 03:00:47;;;;;;;1.98;1.50;;;;;12.40;103130.00;;;;5013477;28;20667;-85
2022/01/22 03:03:14;;;;;;;5.13;1.65;;;;;12.40;103122.00;;;;5025385;28;20199;-85
2022/01/22 03:05:42;;;;;;;2.20;1.17;;;;;12.40;103129.00;;;;5008701;28;20185;-84
2022/01/22 03:08:10;;;;;;;4.13;1.60;;;;;12.40;103131.00;;;;5008344;28;20223;-84
2022/01/22 03:10:39;;;;;;;1.98;1.30;;;;;12.40;103135.00;;;;5018151;28;20208;-85
2022/01/22 03:13:52;;;;;;;2.20;1.40;;;;;12.40;103142.00;;;;5016442;28;20215;-85
2022/01/22 03:16:16;;;;;;;2.65;1.20;;;;;12.40;103143.00;;;;5008207;28;20207;-85
2022/01/22 03:18:54;;;;;;;2.92;1.45;;;;;12.50;103143.00;;;;5010560;28;20323;-84
2022/01/22 03:21:36;;;;;;;4.63;1.60;;;;;12.50;103143.00;;;;5013935;28;20232;-84
2022/01/22 03:29:37;;;;;;;2.88;1.35;;;;;12.40;103141.00;;;;5023442;28;20236;-85
2022/01/22 03:32:07;;;;;;;1.23;1.13;;;;;12.50;103153.00;;;;5031799;28;20204;-84
2022/01/22 03:34:42;;;;;;;7.60;2.30;;;;;12.50;103148.00;;;;5031025;28;20690;-84
2022/01/22 03:37:10;;;;;;;2.00;0.75;;;;;12.50;103147.00;;;;5030932;28;20270;-84
2022/01/22 03:39:37;;;;;;;2.03;1.30;;;;;12.50;103146.00;;;;5016049;28;20212;-84
2022/01/22 03:42:05;;;;;;;5.68;1.30;;;;;12.50;103138.00;;;;5011961;28;20208;-84
2022/01/22 03:44:34;;;;;;;1.95;0.90;;;;;12.50;103143.00;;;;5024455;28;20200;-85
2022/01/22 03:47:01;;;;;;;1.42;0.95;;;;;12.50;103141.00;;;;5014813;28;20193;-84
2022/01/22 03:49:29;;;;;;;4.20;1.42;;;;;12.50;103154.00;;;;5014715;28;20311;-84
2022/01/22 03:51:56;;;;;;;2.78;1.17;;;;;12.50;103143.00;;;;5030991;28;20203;-84
2022/01/22 03:54:23;;;;;;;1.65;1.25;;;;;12.50;103141.00;;;;5023675;28;20200;-85
2022/01/22 03:56:52;;;;;;;4.13;0.93;;;;;12.50;103143.00;;;;5026783;28;20196;-84
2022/01/22 03:59:20;;;;;;;1.83;1.05;;;;;12.50;103147.00;;;;5012401;28;20205;-85
2022/01/22 04:04:39;;;;;;;2.20;1.05;;;;;12.60;103147.00;;;;5003608;28;20314;-84
2022/01/22 04:09:59;;;;;;;2.33;1.08;;;;;12.50;103134.00;;;;4997193;28;20784;-83
2022/01/22 04:12:35;;;;;;;2.92;1.00;;;;;12.50;103143.00;;;;5011861;28;20189;-85
2022/01/22 04:15:04;;;;;;;3.00;1.05;;;;;12.60;103144.00;;;;5011587;28;20714;-84
2022/01/22 04:25:54;;;;;;;2.95;1.50;;;;;12.60;103141.00;;;;5014348;28;20192;-84
2022/01/22 04:28:21;;;;;;;2.20;1.00;;;;;12.60;103147.00;;;;5021712;28;20220;-84
2022/01/22 04:30:48;;;;;;;6.18;1.77;;;;;12.60;103143.00;;;;5010849;28;20535;-84
2022/01/22 04:33:18;;;;;;;5.10;1.10;;;;;12.50;103145.00;;;;5023929;28;20192;-84
2022/01/22 04:35:45;;;;;;;3.10;1.25;;;;;12.60;103151.00;;;;5012588;28;20227;-85
2022/01/22 04:38:13;;;;;;;3.83;1.15;;;;;12.60;103154.00;;;;5025389;28;20224;-84
2022/01/22 04:40:40;;;;;;;2.70;0.93;;;;;12.60;103144.00;;;;5029503;28;20207;-84
2022/01/22 04:43:08;;;;;;;2.55;1.48;;;;;12.60;103152.00;;;;5029937;28;20573;-85
2022/01/22 04:45:49;;;;;;;5.70;1.08;;;;;12.60;103147.00;;;;5016921;28;20246;-85
2022/01/22 04:48:28;;;;;;;3.65;0.90;;;;;12.60;103153.00;;;;5021848;28;20208;-83
2022/01/22 04:56:27;;;;;;;1.90;1.20;;;;;12.60;103152.00;;;;4962544;28;20238;-85
2022/01/22 04:58:54;;;;;;;3.75;1.00;;;;;12.60;103146.00;;;;5009995;28;20200;-85
2022/01/22 05:01:22;;;;;;;4.45;1.25;;;;;12.70;103144.00;;;;5011006;28;20200;-85
2022/01/22 05:03:50;;;;;;;2.45;1.20;;;;;12.60;103147.00;;;;5021722;28;20203;-85
2022/01/22 05:06:17;;;;;;;3.35;1.38;;;;;12.60;103148.00;;;;5027654;28;20211;-85
2022/01/22 05:08:45;;;;;;;3.30;1.60;;;;;12.70;103141.00;;;;5010537;28;20224;-85
2022/01/22 05:11:12;;;;;;;2.97;1.05;;;;;12.70;103139.00;;;;5018365;28;20208;-85
2022/01/22 05:13:40;;;;;;;2.65;1.20;;;;;12.70;103139.00;;;;5014837;28;20251;-85
2022/01/22 05:16:07;;;;;;;3.55;1.00;;;;;12.70;103142.00;;;;5028492;28;20212;-84
2022/01/22 05:18:40;;;;;;;5.68;1.60;;;;;12.70;103138.00;;;;5028053;28;20227;-83
2022/01/22 05:21:13;;;;;;;2.00;1.08;;;;;12.70;103141.00;;;;5022144;28;20231;-83
2022/01/22 05:23:42;;;;;;;1.83;1.05;;;;;12.70;103128.00;;;;5029805;28;20188;-84
2022/01/22 05:26:24;;;;;;;2.53;1.02;;;;;12.70;103141.00;;;;5029293;28;20197;-83
2022/01/22 05:29:17;;;;;;;1.60;1.00;;;;;12.70;103132.00;;;;5014442;28;20593;-83
2022/01/22 05:32:05;;;;;;;2.38;1.00;;;;;12.70;103131.00;;;;5009502;28;20668;-83
2022/01/22 05:37:17;;;;;;;3.38;1.40;;;;;12.70;103125.00;;;;5015710;28;20219;-84
2022/01/22 05:39:45;;;;;;;1.70;1.40;;;;;12.70;103128.00;;;;5027643;28;20207;-83
2022/01/22 05:42:12;;;;;;;2.20;1.20;;;;;12.70;103128.00;;;;5029583;28;20192;-83
2022/01/22 05:44:39;;;;;;;1.77;1.17;;;;;12.70;103124.00;;;;5028526;28;20192;-83
2022/01/22 05:47:07;;;;;;;3.25;1.50;;;;;12.70;103124.00;;;;5021826;28;20208;-83
2022/01/22 05:49:39;;;;;;;2.17;1.02;;;;;12.70;103129.00;;;;5029721;28;20242;-84
2022/01/22 05:52:10;;;;;;;4.82;1.30;;;;;12.70;103133.00;;;;5014302;28;20251;-84
2022/01/22 05:55:12;;;;;;;3.25;1.05;;;;;12.70;103134.00;;;;5018505;28;20691;-84
2022/01/22 06:00:33;;;;;;;4.45;1.23;;;;;12.60;103135.00;;;;4992206;28;20866;-83
2022/01/22 06:03:01;;;;;;;1.40;1.20;;;;;12.70;103139.00;;;;5036099;28;20201;-83
2022/01/22 06:05:29;;;;;;;3.10;1.40;;;;;12.60;103139.00;;;;5035797;28;20197;-83
2022/01/22 06:07:57;;;;;;;2.38;1.02;;;;;12.70;103143.00;;;;5033099;28;20570;-84
2022/01/22 06:10:28;;;;;;;4.88;1.35;;;;;12.60;103142.00;;;;5035138;28;20237;-83
2022/01/22 06:13:11;;;;;;;3.67;0.95;;;;;12.60;103152.00;;;;5032909;28;20273;-83
2022/01/22 06:15:39;;;;;;;1.50;0.82;;;;;12.60;103155.00;;;;5020085;28;20555;-83
2022/01/22 06:18:06;;;;;;;2.58;0.95;;;;;12.60;103147.00;;;;5020481;28;20229;-84
2022/01/22 06:20:33;;;;;;;1.95;1.33;;;;;12.60;103159.00;;;;5022301;28;20224;-83
2022/01/22 06:23:01;;;;;;;3.50;1.02;;;;;12.70;103157.00;;;;5018417;28;20219;-83
2022/01/22 06:25:30;;;;;;;1.85;1.05;;;;;12.70;103162.00;;;;5032032;28;20300;-83
2022/01/22 06:27:58;;;;;;;3.85;1.50;;;;;12.70;103160.00;;;;5037368;28;20323;-83
2022/01/22 06:30:26;;;;;;;2.75;1.30;;;;;12.70;103159.00;;;;5022935;28;20219;-84
2022/01/22 06:32:53;;;;;;;4.28;0.98;;;;;12.70;103164.00;;;;5028198;28;20189;-83
2022/01/22 06:35:20;;;;;;;4.28;0.98;;;;;12.70;103151.00;;;;5027793;28;20212;-83
2022/01/22 06:37:48;;;;;;;5.53;1.55;;;;;12.70;103172.00;;;;5036992;28;20196;-83
2022/01/22 06:43:01;;;;;;;2.45;0.73;;;;;12.70;103173.00;;;;5030621;28;20226;-83
2022/01/22 06:45:29;;;;;;;2.17;1.27;;;;;12.80;103174.00;;;;5038148;28;20207;-82
2022/01/22 06:47:56;;;;;;;2.63;0.80;;;;;12.80;103166.00;;;;5037871;28;20200;-82
2022/01/22 06:50:24;;;;;;;2.65;1.08;;;;;12.80;103167.00;;;;5040251;28;20250;-82
2022/01/22 06:52:56;;;;;;;2.40;1.00;;;;;12.80;103174.00;;;;5044271;28;20196;-82
2022/01/22 06:55:37;;;;;;;3.10;1.10;;;;;12.80;103180.00;;;;5029201;28;20211;-84
2022/01/22 06:58:07;;;;;;;2.33;0.85;;;;;12.80;103179.00;;;;5029563;28;20827;-83
2022/01/22 07:00:34;;;;;;;3.03;0.73;;;;;12.80;103181.00;;;;5030434;28;20658;-83
2022/01/22 07:03:03;;;;;;;1.13;0.55;;;;;12.80;103187.00;;;;5022144;28;20204;-83
2022/01/22 07:05:33;;;;;;;1.13;0.70;;;;;12.80;103182.00;;;;5034730;28;20200;-81
2022/01/22 07:08:00;;;;;;;3.65;0.60;;;;;12.80;103173.00;;;;5035443;28;20646;-82
2022/01/22 07:10:27;;;;;;;1.27;0.52;;;;;12.90;103189.00;;;;5029484;28;20227;-83
2022/01/22 07:12:54;;;;;;;2.42;0.90;;;;;12.90;103186.00;;;;5032759;28;20192;-81
2022/01/22 07:15:23;;;;;;;2.08;0.70;;;;;12.90;103189.00;;;;5033015;28;20203;-84
2022/01/22 07:17:50;;;;;;;2.22;1.00;;;;;12.90;103190.00;;;;5038549;28;20219;-81
2022/01/22 07:20:25;;;;;;;4.82;1.42;;;;;12.80;103191.00;;;;5038117;28;20232;-84
2022/01/22 07:22:59;;;;;;;1.25;0.50;;;;;12.80;103192.00;;;;5026401;28;20223;-83
2022/01/22 07:25:27;;;;;;;2.63;0.60;;;;;12.80;103197.00;;;;5028463;28;20565;-86
2022/01/22 07:27:54;;;;;;;2.85;0.63;;;;;12.80;103197.00;;;;5032177;28;20203;-81
2022/01/22 07:30:23;;;;;;;3.00;0.80;;;;;12.80;103189.00;;;;5036796;28;20243;-83
2022/01/22 07:32:50;;;;;;;1.58;0.98;;;;;12.90;103194.00;;;;5029565;28;20225;-83
2022/01/22 07:35:18;;;;;;;3.97;1.13;;;;;12.80;103190.00;;;;5031907;28;20222;-81
2022/01/22 07:37:46;;;;;;;2.40;0.95;;;;;12.90;103198.00;;;;5027188;28;20201;-81
2022/01/22 07:40:13;;;;;;;3.38;0.93;;;;;12.80;103191.00;;;;5023517;28;20209;-81
2022/01/22 07:42:41;;;;;;;1.30;0.50;;;;;12.80;103186.00;;;;5024879;28;20201;-83
2022/01/22 07:45:10;;;;;;;1.90;0.60;;;;;12.80;103175.00;;;;5026607;28;20223;-81
2022/01/22 07:47:39;;;;;;;2.03;0.70;;;;;12.80;103182.00;;;;5030047;28;20219;-84
2022/01/22 07:50:08;;;;;;;1.60;0.70;;;;;12.80;103179.00;;;;5027037;28;20322;-81
2022/01/22 07:52:35;;;;;;;1.02;0.32;;;;;12.90;103172.00;;;;5030777;28;20215;-81
2022/01/22 07:55:03;;;;;;;1.65;0.70;;;;;12.90;103178.00;;;;5030883;28;20197;-83
2022/01/22 07:57:31;;;;;;;1.10;0.30;;;;;12.90;103185.00;;;;5030731;28;20644;-83
2022/01/22 07:59:58;;;;;;;4.90;0.50;;;;;12.90;103191.00;;;;5025376;28;20208;-84
2022/01/22 08:02:25;;;;;;;1.33;0.90;;;;;12.90;103178.00;;;;5023677;28;20208;-82
2022/01/22 08:04:54;;;;;;;1.98;0.28;;;;;12.90;103188.00;;;;5015897;28;20215;-83
2022/01/22 08:07:21;;;;;;;1.80;0.45;;;;;12.90;103183.00;;;;5029835;28;20212;-83
2022/01/22 08:09:50;;;;;;;2.50;0.40;;;;;13.00;103184.00;;;;5030064;28;20223;-82
2022/01/22 08:12:17;;;;;;;7.22;1.02;;;;;13.00;103187.00;;;;5027622;28;20201;-84
2022/01/22 08:14:45;;;;;;;1.92;0.45;;;;;13.00;103193.00;;;;5026805;28;20203;-84
2022/01/22 08:17:12;;;;;;;2.25;0.40;;;;;13.00;103191.00;;;;5014762;28;20197;-82
2022/01/22 08:19:40;;;;;;;2.85;0.50;;;;;13.10;103191.00;;;;5018816;28;20203;-82
2022/01/22 08:22:08;;;;;;;3.50;0.47;;;;;13.10;103196.00;;;;5020873;28;20205;-82
2022/01/22 08:24:36;;;;;;;2.08;0.20;;;;;13.10;103198.00;;;;5013069;28;20557;-81
2022/01/22 08:27:16;;;;;;;3.75;0.50;;;;;13.10;103188.00;;;;5010607;28;20201;-81
2022/01/22 08:29:44;;;;;;;3.13;0.68;;;;;13.10;103192.00;;;;5024705;28;20220;-81
2022/01/22 08:32:30;;;;;;;0.93;0.40;;;;;13.20;103194.00;;;;5018132;28;20275;-81
2022/01/22 08:37:44;;;;;;;1.45;0.70;;;;;13.20;103192.00;;;;5010318;28;20410;-83
2022/01/22 08:40:12;;;;;;;1.98;0.77;;;;;13.20;103191.00;;;;5010787;28;20201;-83
2022/01/22 08:42:39;;;;;;;1.98;0.45;;;;;13.20;103202.00;;;;5020562;28;20196;-83
2022/01/22 08:45:08;;;;;;;4.22;0.60;;;;;13.20;103201.00;;;;5014089;28;20649;-83
2022/01/22 08:47:35;;;;;;;1.80;0.60;;;;;13.30;103215.00;;;;5014453;28;20200;-82
2022/01/22 08:50:02;;;;;;;3.22;0.60;;;;;13.30;103208.00;;;;5029756;28;20227;-83
2022/01/22 08:52:33;;;;;;;2.17;0.80;;;;;13.30;103207.00;;;;5022106;28;20425;-82
2022/01/22 08:55:02;;;;;;;0.93;0.45;;;;;13.30;103207.00;;;;5013729;28;20193;-82
2022/01/22 08:57:29;;;;;;;3.13;1.20;;;;;13.40;103212.00;;;;5022908;28;20196;-82
2022/01/22 08:59:56;;;;;;;2.15;0.70;;;;;13.40;103210.00;;;;5015552;28;20201;-83
2022/01/22 09:02:24;;;;;;;3.00;1.20;;;;;13.40;103215.00;;;;5023797;28;20223;-83
2022/01/22 09:04:52;;;;;;;3.03;0.98;;;;;13.40;103218.00;;;;5010104;28;20671;-83
2022/01/22 09:07:20;;;;;;;3.63;1.25;;;;;13.40;103222.00;;;;5021301;28;20209;-81
2022/01/22 09:09:48;;;;;;;2.75;1.35;;;;;13.50;103232.00;;;;5025405;28;20232;-82
2022/01/22 09:12:17;;;;;;;4.18;1.98;;;;;13.50;103237.00;;;;5024536;28;20234;-80
2022/01/22 09:14:44;;;;;;;5.22;1.60;;;;;13.50;103235.00;;;;5029743;28;20234;-82
2022/01/22 09:17:12;;;;;;;1.35;1.13;;;;;13.50;103238.00;;;;5016299;28;20204;-83
2022/01/22 09:19:39;;;;;;;2.50;1.65;;;;;13.50;103236.00;;;;5029698;28;20235;-81
2022/01/22 09:22:08;;;;;;;4.40;1.88;;;;;13.50;103231.00;;;;5017633;28;20205;-80
2022/01/22 09:24:35;;;;;;;3.00;2.25;;;;;13.50;103236.00;;;;5022017;28;20196;-82
2022/01/22 09:27:05;;;;;;;4.82;2.40;;;;;13.50;103237.00;;;;5016009;28;20687;-83
2022/01/22 09:29:35;;;;;;;4.80;3.53;;;;;13.50;103234.00;;;;5024976;28;20197;-83
2022/01/22 09:32:02;;;;;;;3.95;3.08;;;;;13.50;103243.00;;;;5018352;28;20614;-82
2022/01/22 09:34:30;;;;;;;4.75;2.92;;;;;13.50;103249.00;;;;5019430;28;20227;-83
2022/01/22 09:36:58;;;;;;;7.40;4.20;;;;;13.50;103245.00;;;;5013533;28;20209;-81
2022/01/22 09:39:25;;;;;;;4.72;3.53;;;;;13.50;103253.00;;;;5009637;28;20578;-82
2022/01/22 09:41:52;;;;;;;8.45;3.45;;;;;13.50;103246.00;;;;5019749;28;20200;-82
2022/01/22 09:44:20;;;;;;;5.75;3.45;;;;;13.50;103250.00;;;;5021373;28;20200;-83
2022/01/22 09:46:51;;;;;;;5.68;3.97;;;;;13.40;103256.00;;;;5021801;28;20226;-83
2022/01/22 09:49:18;;;;;;;7.03;3.55;;;;;13.40;103255.00;;;;5016971;28;20205;-81
2022/01/22 09:51:45;;;;;;;6.40;3.63;;;;;13.40;103260.00;;;;5020900;28;20227;-84
2022/01/22 09:54:13;;;;;;;6.13;3.60;;;;;13.50;103257.00;;;;5010311;28;20291;-83
2022/01/22 09:56:41;;;;;;;7.35;3.90;;;;;13.50;103265.00;;;;5010583;28;20205;-83
2022/01/22 09:59:10;;;;;;;6.32;3.70;;;;;13.50;103266.00;;;;5019403;28;20208;-83
2022/01/22 10:01:39;;;;;;;4.38;2.58;;;;;13.40;103275.00;;;;5021807;28;20281;-84
2022/01/22 10:04:09;;;;;;;6.53;3.42;;;;;13.40;103276.00;;;;5017599;28;20214;-84
2022/01/22 10:06:49;;;;;;;6.75;2.92;;;;;13.40;103278.00;;;;5013488;28;20212;-83
2022/01/22 10:09:26;;;;;;;6.68;3.35;;;;;13.50;103273.00;;;;5015473;28;20527;-84
2022/01/22 10:12:09;;;;;;;7.95;3.35;;;;;13.40;103279.00;;;;5023738;28;20306;-83
2022/01/22 10:14:58;;;;;;;4.68;3.00;;;;;13.50;103271.00;;;;5006753;28;20280;-82
2022/01/22 10:17:47;;;;;;;4.20;3.33;;;;;13.30;103277.00;;;;5007980;28;20254;-83
2022/01/22 10:20:33;;;;;;;5.57;4.32;;;;;13.30;103286.00;;;;5008135;28;20224;-82
2022/01/22 10:23:03;;;;;;;8.30;4.10;;;;;13.30;103288.00;;;;5019704;28;20200;-84
2022/01/22 10:25:35;;;;;;;12.02;4.57;;;;;13.30;103288.00;;;;5014067;28;20189;-82
2022/01/22 10:28:05;;;;;;;5.90;3.58;;;;;13.30;103284.00;;;;5019353;28;20201;-81
2022/01/22 10:30:36;;;;;;;5.32;3.67;;;;;13.30;103282.00;;;;5009076;28;20256;-83
2022/01/22 10:33:20;;;;;;;4.90;3.42;;;;;13.30;103290.00;;;;5008225;28;20255;-83
2022/01/22 10:35:49;;;;;;;6.97;3.70;;;;;13.40;103276.00;;;;5015302;28;20197;-82
2022/01/22 10:38:18;;;;;;;6.80;4.13;;;;;13.40;103276.00;;;;5007706;28;20216;-84
2022/01/22 10:40:47;;;;;;;5.55;3.25;;;;;13.40;103266.00;;;;5023792;28;20277;-84
2022/01/22 10:43:19;;;;;;;5.85;4.20;;;;;13.40;103270.00;;;;5021674;28;20207;-83
2022/01/22 10:46:04;;;;;;;4.85;3.72;;;;;13.40;103272.00;;;;5027359;28;20211;-84
2022/01/22 10:48:31;;;;;;;5.80;3.33;;;;;13.50;103278.00;;;;5008003;28;20205;-82
2022/01/22 10:51:08;;;;;;;6.63;3.45;;;;;13.50;103279.00;;;;5017430;28;20228;-82
2022/01/22 10:53:48;;;;;;;4.38;2.80;;;;;13.50;103277.00;;;;5010259;28;20192;-83
2022/01/22 10:56:17;;;;;;;5.20;3.15;;;;;13.60;103290.00;;;;5018670;28;20279;-83
2022/01/22 10:59:09;;;;;;;5.78;3.25;;;;;13.50;103289.00;;;;5027370;28;20205;-82
2022/01/22 11:01:50;;;;;;;4.30;2.85;;;;;13.50;103278.00;;;;4993713;28;20193;-82
2022/01/22 11:04:19;;;;;;;5.15;3.10;;;;;13.70;103274.00;;;;5012908;28;20223;-82
2022/01/22 11:06:57;;;;;;;4.72;2.67;;;;;13.60;103268.00;;;;5026085;28;20192;-81
2022/01/22 11:09:26;;;;;;;6.65;3.17;;;;;13.70;103278.00;;;;5018762;28;20678;-81
2022/01/22 11:11:55;;;;;;;8.32;3.10;;;;;13.70;103277.00;;;;5021064;28;20248;-81
2022/01/22 11:14:22;;;;;;;3.95;2.67;;;;;13.70;103281.00;;;;5014941;28;20915;-83
2022/01/22 11:16:52;;;;;;;4.78;3.03;;;;;13.80;103292.00;;;;5015871;28;20687;-84
2022/01/22 11:19:22;;;;;;;3.47;2.40;;;;;13.80;103290.00;;;;5008830;28;20224;-83
2022/01/22 11:21:51;;;;;;;5.72;2.65;;;;;13.80;103284.00;;;;5016307;28;20259;-83
2022/01/22 11:24:22;;;;;;;3.92;2.50;;;;;13.80;103283.00;;;;5023734;28;20200;-82
2022/01/22 11:26:52;;;;;;;4.43;2.65;;;;;13.80;103290.00;;;;5016392;28;20207;-82
2022/01/22 11:29:24;;;;;;;4.65;2.88;;;;;13.80;103289.00;;;;5029443;28;20192;-84
2022/01/22 11:31:53;;;;;;;4.78;2.90;;;;;13.90;103285.00;;;;5008753;28;20216;-82
2022/01/22 11:34:24;;;;;;;3.55;2.40;;;;;13.90;103286.00;;;;5008778;28;20209;-82
2022/01/22 11:36:58;;;;;;;3.42;2.17;;;;;13.90;103278.00;;;;5024017;28;20215;-81
2022/01/22 11:39:28;;;;;;;3.35;2.45;;;;;13.90;103278.00;;;;5026821;28;20211;-81
2022/01/22 11:41:58;;;;;;;3.60;2.53;;;;;13.90;103282.00;;;;5022236;28;20220;-81
2022/01/22 11:44:32;;;;;;;4.53;2.40;;;;;13.90;103283.00;;;;5009458;28;20194;-80
2022/01/22 11:47:10;;;;;;;4.93;2.60;;;;;13.80;103286.00;;;;5007598;28;20604;-82
2022/01/22 11:49:38;;;;;;;3.55;1.88;;;;;13.90;103282.00;;;;5008106;28;20574;-81
2022/01/22 11:52:27;;;;;;;3.15;1.92;;;;;13.80;103272.00;;;;5027943;28;20216;-81
2022/01/22 11:54:59;;;;;;;2.67;1.83;;;;;13.90;103273.00;;;;5030271;28;20200;-82
2022/01/22 11:57:28;;;;;;;4.93;1.80;;;;;13.90;103272.00;;;;5017769;28;20231;-82
2022/01/22 12:00:16;;;;;;;3.88;1.95;;;;;13.80;103265.00;;;;5017611;28;20232;-80
2022/01/22 12:02:43;;;;;;;2.53;1.83;;;;;13.90;103265.00;;;;5010355;28;20232;-84
2022/01/22 12:05:11;;;;;;;4.07;2.17;;;;;13.90;103267.00;;;;5023274;28;20209;-82
2022/01/22 12:07:38;;;;;;;2.63;1.50;;;;;13.90;103265.00;;;;5019707;28;20201;-81
2022/01/22 12:10:33;;;;;;;2.40;1.30;;;;;13.90;103258.00;;;;5023465;28;20196;-82
2022/01/22 12:16:08;;;;;;;3.00;1.38;;;;;14.00;103257.00;;;;5012926;28;20693;-81
2022/01/22 12:18:39;;;;;;;1.90;1.55;;;;;14.00;103247.00;;;;5024033;28;20225;-81
2022/01/22 12:23:56;;;;;;;3.17;1.60;;;;;14.00;103248.00;;;;5012808;28;20358;-81
2022/01/22 12:26:42;;;;;;;5.95;1.80;;;;;13.90;103249.00;;;;5033564;28;20227;-82
2022/01/22 12:29:34;;;;;;;2.13;1.45;;;;;13.90;103254.00;;;;5022629;28;20250;-82
2022/01/22 12:32:16;;;;;;;4.25;1.42;;;;;13.90;103242.00;;;;5032832;28;20227;-81
2022/01/22 12:35:09;;;;;;;2.90;1.83;;;;;13.90;103256.00;;;;5010321;28;20197;-81
2022/01/22 12:37:44;;;;;;;3.45;1.45;;;;;14.10;103247.00;;;;5012405;28;20259;-82
2022/01/22 12:40:12;;;;;;;4.05;1.50;;;;;14.10;103258.00;;;;5019454;28;20768;-83
2022/01/22 12:42:59;;;;;;;4.55;1.52;;;;;14.00;103260.00;;;;5010372;28;20633;-83
2022/01/22 12:45:27;;;;;;;2.67;1.52;;;;;14.10;103268.00;;;;5020211;28;20660;-82
2022/01/22 12:47:55;;;;;;;3.28;1.80;;;;;14.10;103265.00;;;;5019915;28;20211;-82
2022/01/22 12:50:35;;;;;;;3.55;1.70;;;;;14.00;103264.00;;;;5012445;28;20211;-81
2022/01/22 12:53:11;;;;;;;2.47;1.60;;;;;14.00;103261.00;;;;5021779;28;20631;-82
2022/01/22 12:58:41;;;;;;;4.03;1.85;;;;;14.10;103258.00;;;;5012172;28;20689;-82
2022/01/22 13:01:27;;;;;;;2.97;1.50;;;;;14.00;103266.00;;;;5025840;28;20572;-82
2022/01/22 13:03:55;;;;;;;3.28;1.50;;;;;14.10;103271.00;;;;5009538;28;20204;-80
2022/01/22 13:06:26;;;;;;;3.78;1.90;;;;;14.10;103274.00;;;;5015659;28;20239;-81
2022/01/22 13:08:57;;;;;;;4.95;1.88;;;;;14.20;103260.00;;;;5019795;28;20228;-82
2022/01/22 13:11:27;;;;;;;4.50;1.60;;;;;14.20;103260.00;;;;5013798;28;20706;-83
2022/01/22 13:13:56;;;;;;;2.40;1.60;;;;;14.20;103262.00;;;;5012576;28;20215;-82
2022/01/22 13:16:23;;;;;;;2.03;1.75;;;;;14.30;103266.00;;;;5020347;28;20204;-83
2022/01/22 13:18:56;;;;;;;2.45;1.52;;;;;14.30;103263.00;;;;5028131;28;20224;-83
2022/01/22 13:21:26;;;;;;;4.07;2.00;;;;;14.30;103267.00;;;;5029172;28;20224;-83
2022/01/22 13:24:01;;;;;;;3.08;1.75;;;;;14.20;103267.00;;;;5028991;28;20204;-83
2022/01/22 13:26:51;;;;;;;4.07;2.65;;;;;14.10;103272.00;;;;5016473;28;20201;-83
2022/01/22 13:29:24;;;;;;;3.25;2.22;;;;;14.20;103270.00;;;;5010501;28;20284;-84
2022/01/22 13:32:10;;;;;;;2.42;1.85;;;;;14.10;103276.00;;;;5011054;28;20223;-85
2022/01/22 13:40:59;;;;;;;3.00;2.10;;;;;14.10;103279.00;;;;5017144;28;20216;-83
2022/01/22 13:49:05;;;;;;;3.05;2.63;;;;;14.00;103275.00;;;;5027996;28;20211;-82
2022/01/22 13:51:33;;;;;;;3.85;2.50;;;;;14.00;103272.00;;;;5019423;28;20220;-80
2022/01/22 13:54:02;;;;;;;4.15;2.50;;;;;14.00;103277.00;;;;5028337;28;20208;-82